sensor_id;sensor_type;location;lat;lon;timestamp;P1;durP1;ratioP1;P2;durP2;ratioP2
41568;SDS011;27283;52.504;13.358;2023-04-06T00:01:30;11.73;;;6.70;;
41568;SDS011;27283;52.504;13.358;2023-04-06T00:04:03;12.45;;;6.90;;
41568;SDS011;27283;52.504;13.358;2023-04-06T00:06:36;11.93;;;6.55;;
41568;SDS011;27283;52.504;13.358;2023-04-06T00:09:08;14.27;;;6.45;;
41568;SDS011;27283;52.504;13.358;2023-04-06T00:11:44;13.32;;;6.50;;
41568;SDS011;27283;52.504;13.358;2023-04-06T00:14:15;10.43;;;6.47;;
41568;SDS011;27283;52.504;13.358;2023-04-06T00:16:48;13.75;;;6.82;;
41568;SDS011;27283;52.504;13.358;2023-04-06T00:19:20;12.07;;;6.32;;
41568;SDS011;27283;52.504;13.358;2023-04-06T00:21:53;14.57;;;6.75;;
41568;SDS011;27283;52.504;13.358;2023-04-06T00:24:25;11.27;;;6.35;;
41568;SDS011;27283;52.504;13.358;2023-04-06T00:27:01;13.48;;;6.47;;
41568;SDS011;27283;52.504;13.358;2023-04-06T00:29:36;12.05;;;6.32;;
41568;SDS011;27283;52.504;13.358;2023-04-06T00:32:09;10.00;;;6.10;;
41568;SDS011;27283;52.504;13.358;2023-04-06T00:34:41;13.50;;;6.78;;
41568;SDS011;27283;52.504;13.358;2023-04-06T00:37:14;14.10;;;6.50;;
41568;SDS011;27283;52.504;13.358;2023-04-06T00:39:46;13.07;;;6.57;;
41568;SDS011;27283;52.504;13.358;2023-04-06T00:42:25;15.48;;;6.70;;
41568;SDS011;27283;52.504;13.358;2023-04-06T00:44:57;14.40;;;6.68;;
41568;SDS011;27283;52.504;13.358;2023-04-06T00:47:31;15.93;;;6.82;;
41568;SDS011;27283;52.504;13.358;2023-04-06T00:50:05;12.23;;;6.53;;
41568;SDS011;27283;52.504;13.358;2023-04-06T00:52:38;16.50;;;6.53;;
41568;SDS011;27283;52.504;13.358;2023-04-06T00:55:10;12.15;;;6.93;;
41568;SDS011;27283;52.504;13.358;2023-04-06T00:57:45;12.32;;;6.43;;
41568;SDS011;27283;52.504;13.358;2023-04-06T01:00:18;13.05;;;6.40;;
41568;SDS011;27283;52.504;13.358;2023-04-06T01:02:50;11.82;;;6.30;;
41568;SDS011;27283;52.504;13.358;2023-04-06T01:05:23;14.73;;;6.40;;
41568;SDS011;27283;52.504;13.358;2023-04-06T01:07:59;11.00;;;6.22;;
41568;SDS011;27283;52.504;13.358;2023-04-06T01:10:32;10.82;;;6.00;;
41568;SDS011;27283;52.504;13.358;2023-04-06T01:13:07;12.00;;;6.07;;
41568;SDS011;27283;52.504;13.358;2023-04-06T01:15:39;14.38;;;6.20;;
41568;SDS011;27283;52.504;13.358;2023-04-06T01:18:12;11.40;;;5.78;;
41568;SDS011;27283;52.504;13.358;2023-04-06T01:20:44;13.57;;;6.38;;
41568;SDS011;27283;52.504;13.358;2023-04-06T01:23:19;10.00;;;6.47;;
41568;SDS011;27283;52.504;13.358;2023-04-06T01:25:52;10.48;;;6.03;;
41568;SDS011;27283;52.504;13.358;2023-04-06T01:28:24;14.10;;;5.88;;
41568;SDS011;27283;52.504;13.358;2023-04-06T01:30:56;12.63;;;6.32;;
41568;SDS011;27283;52.504;13.358;2023-04-06T01:33:29;12.02;;;6.75;;
41568;SDS011;27283;52.504;13.358;2023-04-06T01:36:01;12.90;;;6.50;;
41568;SDS011;27283;52.504;13.358;2023-04-06T01:38:36;11.52;;;6.05;;
41568;SDS011;27283;52.504;13.358;2023-04-06T01:41:09;14.10;;;6.63;;
41568;SDS011;27283;52.504;13.358;2023-04-06T01:43:44;10.90;;;6.15;;
41568;SDS011;27283;52.504;13.358;2023-04-06T01:46:16;13.32;;;6.45;;
41568;SDS011;27283;52.504;13.358;2023-04-06T01:48:59;14.63;;;6.38;;
41568;SDS011;27283;52.504;13.358;2023-04-06T01:51:31;15.40;;;6.55;;
41568;SDS011;27283;52.504;13.358;2023-04-06T01:54:07;11.48;;;6.35;;
41568;SDS011;27283;52.504;13.358;2023-04-06T01:56:39;10.63;;;6.88;;
41568;SDS011;27283;52.504;13.358;2023-04-06T01:59:11;13.82;;;6.57;;
41568;SDS011;27283;52.504;13.358;2023-04-06T02:01:43;13.80;;;6.60;;
41568;SDS011;27283;52.504;13.358;2023-04-06T02:04:16;11.77;;;6.63;;
41568;SDS011;27283;52.504;13.358;2023-04-06T02:06:49;14.13;;;7.07;;
41568;SDS011;27283;52.504;13.358;2023-04-06T02:09:25;11.75;;;6.47;;
41568;SDS011;27283;52.504;13.358;2023-04-06T02:12:00;15.50;;;7.00;;
41568;SDS011;27283;52.504;13.358;2023-04-06T02:14:33;15.15;;;6.78;;
41568;SDS011;27283;52.504;13.358;2023-04-06T02:17:05;12.90;;;6.63;;
41568;SDS011;27283;52.504;13.358;2023-04-06T02:19:38;14.20;;;6.60;;
41568;SDS011;27283;52.504;13.358;2023-04-06T02:22:10;13.25;;;6.80;;
41568;SDS011;27283;52.504;13.358;2023-04-06T02:24:46;16.42;;;7.60;;
41568;SDS011;27283;52.504;13.358;2023-04-06T02:27:29;16.98;;;6.75;;
41568;SDS011;27283;52.504;13.358;2023-04-06T02:30:04;12.15;;;6.72;;
41568;SDS011;27283;52.504;13.358;2023-04-06T02:32:38;9.63;;;6.40;;
41568;SDS011;27283;52.504;13.358;2023-04-06T02:35:11;13.38;;;6.97;;
41568;SDS011;27283;52.504;13.358;2023-04-06T02:37:44;12.70;;;6.88;;
41568;SDS011;27283;52.504;13.358;2023-04-06T02:40:19;15.07;;;7.05;;
41568;SDS011;27283;52.504;13.358;2023-04-06T02:42:51;12.80;;;6.13;;
41568;SDS011;27283;52.504;13.358;2023-04-06T02:45:24;16.08;;;6.78;;
41568;SDS011;27283;52.504;13.358;2023-04-06T02:47:56;14.05;;;6.90;;
41568;SDS011;27283;52.504;13.358;2023-04-06T02:50:29;13.98;;;7.25;;
41568;SDS011;27283;52.504;13.358;2023-04-06T02:53:02;12.82;;;6.97;;
41568;SDS011;27283;52.504;13.358;2023-04-06T02:55:37;17.70;;;7.68;;
41568;SDS011;27283;52.504;13.358;2023-04-06T02:58:10;14.95;;;7.43;;
41568;SDS011;27283;52.504;13.358;2023-04-06T03:00:43;13.02;;;7.03;;
41568;SDS011;27283;52.504;13.358;2023-04-06T03:03:15;13.95;;;7.28;;
41568;SDS011;27283;52.504;13.358;2023-04-06T03:05:48;14.30;;;7.13;;
41568;SDS011;27283;52.504;13.358;2023-04-06T03:08:20;11.75;;;7.22;;
41568;SDS011;27283;52.504;13.358;2023-04-06T03:10:55;10.90;;;6.80;;
41568;SDS011;27283;52.504;13.358;2023-04-06T03:13:28;14.23;;;8.05;;
41568;SDS011;27283;52.504;13.358;2023-04-06T03:16:00;15.02;;;7.50;;
41568;SDS011;27283;52.504;13.358;2023-04-06T03:18:33;14.32;;;7.65;;
41568;SDS011;27283;52.504;13.358;2023-04-06T03:21:05;16.98;;;8.02;;
41568;SDS011;27283;52.504;13.358;2023-04-06T03:23:38;17.40;;;8.45;;
41568;SDS011;27283;52.504;13.358;2023-04-06T03:26:13;17.35;;;7.80;;
41568;SDS011;27283;52.504;13.358;2023-04-06T03:28:48;16.50;;;8.40;;
41568;SDS011;27283;52.504;13.358;2023-04-06T03:31:21;12.95;;;7.70;;
41568;SDS011;27283;52.504;13.358;2023-04-06T03:33:53;19.23;;;8.68;;
41568;SDS011;27283;52.504;13.358;2023-04-06T03:36:26;13.68;;;8.05;;
41568;SDS011;27283;52.504;13.358;2023-04-06T03:38:58;14.27;;;8.80;;
41568;SDS011;27283;52.504;13.358;2023-04-06T03:41:33;19.42;;;8.63;;
41568;SDS011;27283;52.504;13.358;2023-04-06T03:44:05;16.83;;;8.82;;
41568;SDS011;27283;52.504;13.358;2023-04-06T03:46:38;15.75;;;8.60;;
41568;SDS011;27283;52.504;13.358;2023-04-06T03:49:10;18.85;;;8.75;;
41568;SDS011;27283;52.504;13.358;2023-04-06T03:51:42;17.30;;;8.98;;
41568;SDS011;27283;52.504;13.358;2023-04-06T03:54:14;18.05;;;9.00;;
41568;SDS011;27283;52.504;13.358;2023-04-06T03:56:49;18.15;;;9.70;;
41568;SDS011;27283;52.504;13.358;2023-04-06T03:59:21;20.13;;;10.20;;
41568;SDS011;27283;52.504;13.358;2023-04-06T04:01:54;16.88;;;9.23;;
41568;SDS011;27283;52.504;13.358;2023-04-06T04:04:26;22.50;;;10.93;;
41568;SDS011;27283;52.504;13.358;2023-04-06T04:06:58;17.27;;;10.00;;
41568;SDS011;27283;52.504;13.358;2023-04-06T04:09:30;23.08;;;10.85;;
41568;SDS011;27283;52.504;13.358;2023-04-06T04:12:06;22.95;;;11.13;;
41568;SDS011;27283;52.504;13.358;2023-04-06T04:14:38;21.95;;;11.07;;
41568;SDS011;27283;52.504;13.358;2023-04-06T04:17:10;18.70;;;11.10;;
41568;SDS011;27283;52.504;13.358;2023-04-06T04:19:42;20.60;;;10.40;;
41568;SDS011;27283;52.504;13.358;2023-04-06T04:22:15;21.25;;;10.77;;
41568;SDS011;27283;52.504;13.358;2023-04-06T04:24:47;20.38;;;10.65;;
41568;SDS011;27283;52.504;13.358;2023-04-06T04:27:22;17.88;;;10.88;;
41568;SDS011;27283;52.504;13.358;2023-04-06T04:29:54;20.45;;;11.30;;
41568;SDS011;27283;52.504;13.358;2023-04-06T04:32:26;22.23;;;11.27;;
41568;SDS011;27283;52.504;13.358;2023-04-06T04:34:59;19.42;;;11.15;;
41568;SDS011;27283;52.504;13.358;2023-04-06T04:37:31;21.65;;;11.80;;
41568;SDS011;27283;52.504;13.358;2023-04-06T04:40:04;19.63;;;12.00;;
41568;SDS011;27283;52.504;13.358;2023-04-06T04:42:40;18.92;;;11.25;;
41568;SDS011;27283;52.504;13.358;2023-04-06T04:45:12;19.80;;;11.73;;
41568;SDS011;27283;52.504;13.358;2023-04-06T04:47:44;20.20;;;11.80;;
41568;SDS011;27283;52.504;13.358;2023-04-06T04:50:16;22.33;;;12.23;;
41568;SDS011;27283;52.504;13.358;2023-04-06T04:52:49;23.17;;;12.30;;
41568;SDS011;27283;52.504;13.358;2023-04-06T04:55:21;21.50;;;12.00;;
41568;SDS011;27283;52.504;13.358;2023-04-06T04:57:56;17.80;;;11.65;;
41568;SDS011;27283;52.504;13.358;2023-04-06T05:00:28;19.15;;;11.48;;
41568;SDS011;27283;52.504;13.358;2023-04-06T05:03:00;20.55;;;12.18;;
41568;SDS011;27283;52.504;13.358;2023-04-06T05:05:32;24.33;;;11.75;;
41568;SDS011;27283;52.504;13.358;2023-04-06T05:08:05;21.75;;;12.38;;
41568;SDS011;27283;52.504;13.358;2023-04-06T05:10:37;21.15;;;12.13;;
41568;SDS011;27283;52.504;13.358;2023-04-06T05:13:12;20.67;;;11.50;;
41568;SDS011;27283;52.504;13.358;2023-04-06T05:15:44;20.23;;;11.43;;
41568;SDS011;27283;52.504;13.358;2023-04-06T05:18:17;20.73;;;11.57;;
41568;SDS011;27283;52.504;13.358;2023-04-06T05:20:49;21.27;;;11.98;;
41568;SDS011;27283;52.504;13.358;2023-04-06T05:23:22;20.00;;;11.60;;
41568;SDS011;27283;52.504;13.358;2023-04-06T05:25:54;22.42;;;11.75;;
41568;SDS011;27283;52.504;13.358;2023-04-06T05:28:29;22.92;;;12.07;;
41568;SDS011;27283;52.504;13.358;2023-04-06T05:31:01;23.85;;;11.48;;
41568;SDS011;27283;52.504;13.358;2023-04-06T05:33:34;23.17;;;12.07;;
41568;SDS011;27283;52.504;13.358;2023-04-06T05:36:07;20.48;;;11.32;;
41568;SDS011;27283;52.504;13.358;2023-04-06T05:38:42;18.98;;;11.50;;
41568;SDS011;27283;52.504;13.358;2023-04-06T05:41:15;20.73;;;11.63;;
41568;SDS011;27283;52.504;13.358;2023-04-06T05:43:52;21.20;;;11.90;;
41568;SDS011;27283;52.504;13.358;2023-04-06T05:46:24;21.42;;;11.63;;
41568;SDS011;27283;52.504;13.358;2023-04-06T05:48:57;20.45;;;11.57;;
41568;SDS011;27283;52.504;13.358;2023-04-06T05:51:32;19.73;;;11.20;;
41568;SDS011;27283;52.504;13.358;2023-04-06T05:54:05;22.10;;;12.02;;
41568;SDS011;27283;52.504;13.358;2023-04-06T05:56:37;20.85;;;12.30;;
41568;SDS011;27283;52.504;13.358;2023-04-06T05:59:13;24.30;;;12.02;;
41568;SDS011;27283;52.504;13.358;2023-04-06T06:01:45;21.85;;;11.93;;
41568;SDS011;27283;52.504;13.358;2023-04-06T06:04:18;25.98;;;12.50;;
41568;SDS011;27283;52.504;13.358;2023-04-06T06:06:51;21.65;;;11.85;;
41568;SDS011;27283;52.504;13.358;2023-04-06T06:09:24;20.27;;;11.32;;
41568;SDS011;27283;52.504;13.358;2023-04-06T06:11:56;17.95;;;10.65;;
41568;SDS011;27283;52.504;13.358;2023-04-06T06:14:32;17.98;;;10.57;;
41568;SDS011;27283;52.504;13.358;2023-04-06T06:17:04;19.17;;;10.68;;
41568;SDS011;27283;52.504;13.358;2023-04-06T06:19:37;15.77;;;10.30;;
41568;SDS011;27283;52.504;13.358;2023-04-06T06:22:09;17.48;;;10.15;;
41568;SDS011;27283;52.504;13.358;2023-04-06T06:24:42;19.48;;;9.48;;
41568;SDS011;27283;52.504;13.358;2023-04-06T06:27:15;22.02;;;10.05;;
41568;SDS011;27283;52.504;13.358;2023-04-06T06:29:50;17.77;;;9.43;;
41568;SDS011;27283;52.504;13.358;2023-04-06T06:32:23;20.73;;;10.00;;
41568;SDS011;27283;52.504;13.358;2023-04-06T06:34:56;16.50;;;9.93;;
41568;SDS011;27283;52.504;13.358;2023-04-06T06:37:28;15.65;;;10.00;;
41568;SDS011;27283;52.504;13.358;2023-04-06T06:40:01;19.05;;;10.23;;
41568;SDS011;27283;52.504;13.358;2023-04-06T06:42:34;18.02;;;10.27;;
41568;SDS011;27283;52.504;13.358;2023-04-06T06:45:10;24.05;;;10.32;;
41568;SDS011;27283;52.504;13.358;2023-04-06T06:47:42;14.35;;;8.90;;
41568;SDS011;27283;52.504;13.358;2023-04-06T06:50:23;16.55;;;9.27;;
41568;SDS011;27283;52.504;13.358;2023-04-06T06:52:55;18.10;;;8.85;;
41568;SDS011;27283;52.504;13.358;2023-04-06T06:55:27;17.50;;;8.65;;
41568;SDS011;27283;52.504;13.358;2023-04-06T06:58:00;15.85;;;8.45;;
41568;SDS011;27283;52.504;13.358;2023-04-06T07:00:35;16.15;;;7.72;;
41568;SDS011;27283;52.504;13.358;2023-04-06T07:03:07;16.70;;;8.18;;
41568;SDS011;27283;52.504;13.358;2023-04-06T07:05:45;14.18;;;7.55;;
41568;SDS011;27283;52.504;13.358;2023-04-06T07:08:21;13.05;;;7.22;;
41568;SDS011;27283;52.504;13.358;2023-04-06T07:10:55;14.27;;;7.57;;
41568;SDS011;27283;52.504;13.358;2023-04-06T07:13:27;13.70;;;7.45;;
41568;SDS011;27283;52.504;13.358;2023-04-06T07:16:17;16.52;;;7.85;;
41568;SDS011;27283;52.504;13.358;2023-04-06T07:18:50;10.60;;;6.88;;
41568;SDS011;27283;52.504;13.358;2023-04-06T07:21:22;13.27;;;7.40;;
41568;SDS011;27283;52.504;13.358;2023-04-06T07:23:55;12.35;;;7.05;;
41568;SDS011;27283;52.504;13.358;2023-04-06T07:26:28;9.90;;;6.22;;
41568;SDS011;27283;52.504;13.358;2023-04-06T08:53:42;9.65;;;4.65;;
41568;SDS011;27283;52.504;13.358;2023-04-06T08:56:30;7.75;;;3.90;;
41568;SDS011;27283;52.504;13.358;2023-04-06T08:59:06;8.57;;;3.42;;
41568;SDS011;27283;52.504;13.358;2023-04-06T09:01:41;6.82;;;3.85;;
41568;SDS011;27283;52.504;13.358;2023-04-06T09:04:19;5.97;;;3.60;;
41568;SDS011;27283;52.504;13.358;2023-04-06T09:06:55;7.50;;;3.35;;
41568;SDS011;27283;52.504;13.358;2023-04-06T09:09:38;7.60;;;3.28;;
41568;SDS011;27283;52.504;13.358;2023-04-06T09:12:22;6.40;;;3.00;;
41568;SDS011;27283;52.504;13.358;2023-04-06T09:15:03;6.15;;;2.97;;
41568;SDS011;27283;52.504;13.358;2023-04-06T09:17:43;6.53;;;2.75;;
41568;SDS011;27283;52.504;13.358;2023-04-06T09:20:21;6.88;;;2.70;;
41568;SDS011;27283;52.504;13.358;2023-04-06T09:23:04;6.43;;;3.25;;
41568;SDS011;27283;52.504;13.358;2023-04-06T09:25:40;5.25;;;2.67;;
41568;SDS011;27283;52.504;13.358;2023-04-06T09:28:23;8.48;;;2.47;;
41568;SDS011;27283;52.504;13.358;2023-04-06T09:30:55;4.78;;;2.92;;
41568;SDS011;27283;52.504;13.358;2023-04-06T09:33:28;7.70;;;2.75;;
41568;SDS011;27283;52.504;13.358;2023-04-06T09:36:00;4.82;;;2.40;;
41568;SDS011;27283;52.504;13.358;2023-04-06T09:38:32;5.05;;;2.50;;
41568;SDS011;27283;52.504;13.358;2023-04-06T09:41:07;4.07;;;2.50;;
41568;SDS011;27283;52.504;13.358;2023-04-06T09:43:39;4.70;;;2.58;;
41568;SDS011;27283;52.504;13.358;2023-04-06T09:46:11;5.85;;;2.90;;
41568;SDS011;27283;52.504;13.358;2023-04-06T09:48:45;5.25;;;2.88;;
41568;SDS011;27283;52.504;13.358;2023-04-06T09:54:09;7.97;;;2.83;;
41568;SDS011;27283;52.504;13.358;2023-04-06T09:56:50;5.13;;;3.10;;
41568;SDS011;27283;52.504;13.358;2023-04-06T09:59:33;5.22;;;2.92;;
41568;SDS011;27283;52.504;13.358;2023-04-06T10:02:15;7.72;;;3.22;;
41568;SDS011;27283;52.504;13.358;2023-04-06T10:04:56;4.45;;;2.65;;
41568;SDS011;27283;52.504;13.358;2023-04-06T10:07:34;5.45;;;2.30;;
41568;SDS011;27283;52.504;13.358;2023-04-06T10:10:27;4.88;;;3.05;;
41568;SDS011;27283;52.504;13.358;2023-04-06T10:13:02;4.78;;;2.33;;
41568;SDS011;27283;52.504;13.358;2023-04-06T10:15:36;5.10;;;2.17;;
41568;SDS011;27283;52.504;13.358;2023-04-06T10:18:10;4.72;;;2.40;;
41568;SDS011;27283;52.504;13.358;2023-04-06T10:20:43;6.35;;;2.30;;
41568;SDS011;27283;52.504;13.358;2023-04-06T10:23:22;5.30;;;2.42;;
41568;SDS011;27283;52.504;13.358;2023-04-06T10:26:01;4.80;;;2.92;;
41568;SDS011;27283;52.504;13.358;2023-04-06T10:28:40;6.18;;;2.70;;
41568;SDS011;27283;52.504;13.358;2023-04-06T10:31:14;3.45;;;2.47;;
41568;SDS011;27283;52.504;13.358;2023-04-06T10:33:55;4.28;;;2.42;;
41568;SDS011;27283;52.504;13.358;2023-04-06T10:36:32;5.30;;;2.40;;
41568;SDS011;27283;52.504;13.358;2023-04-06T10:39:05;3.80;;;2.60;;
41568;SDS011;27283;52.504;13.358;2023-04-06T10:41:41;4.22;;;2.50;;
41568;SDS011;27283;52.504;13.358;2023-04-06T10:44:23;4.53;;;2.30;;
41568;SDS011;27283;52.504;13.358;2023-04-06T10:46:57;3.90;;;2.20;;
41568;SDS011;27283;52.504;13.358;2023-04-06T10:49:31;5.40;;;2.40;;
41568;SDS011;27283;52.504;13.358;2023-04-06T10:52:04;4.78;;;2.40;;
41568;SDS011;27283;52.504;13.358;2023-04-06T10:54:40;4.35;;;2.70;;
41568;SDS011;27283;52.504;13.358;2023-04-06T10:57:17;5.63;;;2.72;;
41568;SDS011;27283;52.504;13.358;2023-04-06T11:00:04;4.45;;;2.60;;
41568;SDS011;27283;52.504;13.358;2023-04-06T11:02:40;6.75;;;2.92;;
41568;SDS011;27283;52.504;13.358;2023-04-06T11:05:12;6.22;;;2.97;;
41568;SDS011;27283;52.504;13.358;2023-04-06T11:07:44;4.68;;;2.60;;
41568;SDS011;27283;52.504;13.358;2023-04-06T11:10:20;4.38;;;2.83;;
41568;SDS011;27283;52.504;13.358;2023-04-06T11:12:54;5.97;;;2.60;;
41568;SDS011;27283;52.504;13.358;2023-04-06T11:15:33;5.45;;;2.72;;
41568;SDS011;27283;52.504;13.358;2023-04-06T11:18:07;5.03;;;2.45;;
41568;SDS011;27283;52.504;13.358;2023-04-06T11:20:39;4.35;;;2.50;;
41568;SDS011;27283;52.504;13.358;2023-04-06T11:23:22;5.38;;;2.53;;
41568;SDS011;27283;52.504;13.358;2023-04-06T11:25:56;4.22;;;2.60;;
41568;SDS011;27283;52.504;13.358;2023-04-06T11:28:29;4.97;;;2.50;;
41568;SDS011;27283;52.504;13.358;2023-04-06T11:31:05;4.07;;;2.53;;
41568;SDS011;27283;52.504;13.358;2023-04-06T11:33:38;4.90;;;2.85;;
41568;SDS011;27283;52.504;13.358;2023-04-06T11:36:12;5.22;;;2.78;;
41568;SDS011;27283;52.504;13.358;2023-04-06T11:38:46;6.03;;;3.15;;
41568;SDS011;27283;52.504;13.358;2023-04-06T11:41:18;5.68;;;2.50;;
41568;SDS011;27283;52.504;13.358;2023-04-06T11:44:02;5.38;;;2.80;;
41568;SDS011;27283;52.504;13.358;2023-04-06T11:46:40;4.93;;;2.58;;
41568;SDS011;27283;52.504;13.358;2023-04-06T11:49:13;4.35;;;2.65;;
41568;SDS011;27283;52.504;13.358;2023-04-06T11:51:48;5.30;;;3.13;;
41568;SDS011;27283;52.504;13.358;2023-04-06T11:54:33;5.90;;;3.00;;
41568;SDS011;27283;52.504;13.358;2023-04-06T11:57:12;4.03;;;2.58;;
41568;SDS011;27283;52.504;13.358;2023-04-06T11:59:45;4.05;;;2.72;;
41568;SDS011;27283;52.504;13.358;2023-04-06T12:02:21;4.90;;;2.80;;
41568;SDS011;27283;52.504;13.358;2023-04-06T12:04:54;4.93;;;2.75;;
41568;SDS011;27283;52.504;13.358;2023-04-06T12:07:27;5.78;;;3.25;;
41568;SDS011;27283;52.504;13.358;2023-04-06T12:10:01;4.65;;;2.80;;
41568;SDS011;27283;52.504;13.358;2023-04-06T12:12:34;5.72;;;2.80;;
41568;SDS011;27283;52.504;13.358;2023-04-06T12:15:07;5.72;;;2.88;;
41568;SDS011;27283;52.504;13.358;2023-04-06T12:17:43;3.25;;;2.67;;
41568;SDS011;27283;52.504;13.358;2023-04-06T12:20:16;4.43;;;2.90;;
41568;SDS011;27283;52.504;13.358;2023-04-06T12:22:54;5.25;;;3.08;;
41568;SDS011;27283;52.504;13.358;2023-04-06T12:25:27;4.78;;;3.08;;
41568;SDS011;27283;52.504;13.358;2023-04-06T12:27:59;7.15;;;3.00;;
41568;SDS011;27283;52.504;13.358;2023-04-06T12:30:32;5.47;;;2.80;;
41568;SDS011;27283;52.504;13.358;2023-04-06T12:33:09;6.60;;;2.70;;
41568;SDS011;27283;52.504;13.358;2023-04-06T12:35:42;4.85;;;3.08;;
41568;SDS011;27283;52.504;13.358;2023-04-06T12:38:14;5.60;;;2.70;;
41568;SDS011;27283;52.504;13.358;2023-04-06T12:40:47;4.40;;;3.15;;
41568;SDS011;27283;52.504;13.358;2023-04-06T12:43:19;7.72;;;2.80;;
41568;SDS011;27283;52.504;13.358;2023-04-06T12:45:52;5.68;;;3.10;;
41568;SDS011;27283;52.504;13.358;2023-04-06T12:48:26;4.65;;;3.03;;
41568;SDS011;27283;52.504;13.358;2023-04-06T12:51:00;4.90;;;3.17;;
41568;SDS011;27283;52.504;13.358;2023-04-06T12:53:34;6.38;;;3.17;;
41568;SDS011;27283;52.504;13.358;2023-04-06T12:56:11;5.50;;;2.90;;
41568;SDS011;27283;52.504;13.358;2023-04-06T12:58:47;5.65;;;3.17;;
41568;SDS011;27283;52.504;13.358;2023-04-06T13:01:22;6.68;;;3.17;;
41568;SDS011;27283;52.504;13.358;2023-04-06T13:03:59;5.50;;;3.10;;
41568;SDS011;27283;52.504;13.358;2023-04-06T13:06:32;6.40;;;3.60;;
41568;SDS011;27283;52.504;13.358;2023-04-06T13:09:04;9.80;;;4.57;;
41568;SDS011;27283;52.504;13.358;2023-04-06T13:11:36;6.85;;;3.60;;
41568;SDS011;27283;52.504;13.358;2023-04-06T13:14:09;5.60;;;3.25;;
41568;SDS011;27283;52.504;13.358;2023-04-06T13:16:42;6.32;;;3.15;;
41568;SDS011;27283;52.504;13.358;2023-04-06T13:19:17;7.07;;;3.35;;
41568;SDS011;27283;52.504;13.358;2023-04-06T13:21:50;6.97;;;3.25;;
41568;SDS011;27283;52.504;13.358;2023-04-06T13:24:24;6.65;;;4.00;;
41568;SDS011;27283;52.504;13.358;2023-04-06T13:26:57;6.25;;;4.10;;
41568;SDS011;27283;52.504;13.358;2023-04-06T13:29:29;6.75;;;3.67;;
41568;SDS011;27283;52.504;13.358;2023-04-06T13:32:03;7.85;;;3.60;;
41568;SDS011;27283;52.504;13.358;2023-04-06T13:34:38;5.90;;;3.47;;
41568;SDS011;27283;52.504;13.358;2023-04-06T13:37:13;8.15;;;3.70;;
41568;SDS011;27283;52.504;13.358;2023-04-06T13:39:46;7.20;;;3.55;;
41568;SDS011;27283;52.504;13.358;2023-04-06T13:42:19;5.53;;;3.50;;
41568;SDS011;27283;52.504;13.358;2023-04-06T13:44:52;7.55;;;3.85;;
41568;SDS011;27283;52.504;13.358;2023-04-06T13:47:24;6.50;;;3.75;;
41568;SDS011;27283;52.504;13.358;2023-04-06T13:49:59;6.47;;;3.83;;
41568;SDS011;27283;52.504;13.358;2023-04-06T13:52:32;6.45;;;3.40;;
41568;SDS011;27283;52.504;13.358;2023-04-06T13:55:05;6.80;;;3.47;;
41568;SDS011;27283;52.504;13.358;2023-04-06T13:57:38;6.22;;;3.67;;
41568;SDS011;27283;52.504;13.358;2023-04-06T14:00:10;6.05;;;3.38;;
41568;SDS011;27283;52.504;13.358;2023-04-06T14:02:44;10.07;;;3.67;;
41568;SDS011;27283;52.504;13.358;2023-04-06T14:05:19;5.90;;;3.67;;
41568;SDS011;27283;52.504;13.358;2023-04-06T14:07:52;8.82;;;3.83;;
41568;SDS011;27283;52.504;13.358;2023-04-06T14:10:24;7.00;;;3.60;;
41568;SDS011;27283;52.504;13.358;2023-04-06T14:12:57;8.35;;;3.60;;
41568;SDS011;27283;52.504;13.358;2023-04-06T14:15:32;6.63;;;3.60;;
41568;SDS011;27283;52.504;13.358;2023-04-06T14:18:06;7.45;;;3.33;;
41568;SDS011;27283;52.504;13.358;2023-04-06T14:20:42;7.15;;;3.80;;
41568;SDS011;27283;52.504;13.358;2023-04-06T14:23:14;14.43;;;8.13;;
41568;SDS011;27283;52.504;13.358;2023-04-06T14:25:46;4.47;;;2.90;;
41568;SDS011;27283;52.504;13.358;2023-04-06T14:28:20;6.95;;;3.30;;
41568;SDS011;27283;52.504;13.358;2023-04-06T14:30:52;6.10;;;3.20;;
41568;SDS011;27283;52.504;13.358;2023-04-06T14:33:25;6.43;;;2.80;;
41568;SDS011;27283;52.504;13.358;2023-04-06T14:36:12;4.00;;;2.85;;
41568;SDS011;27283;52.504;13.358;2023-04-06T14:38:48;7.07;;;3.38;;
41568;SDS011;27283;52.504;13.358;2023-04-06T14:41:21;5.32;;;3.20;;
41568;SDS011;27283;52.504;13.358;2023-04-06T14:43:57;6.20;;;3.55;;
41568;SDS011;27283;52.504;13.358;2023-04-06T14:46:30;5.07;;;3.20;;
41568;SDS011;27283;52.504;13.358;2023-04-06T14:49:04;6.28;;;3.53;;
41568;SDS011;27283;52.504;13.358;2023-04-06T14:51:38;7.00;;;3.38;;
41568;SDS011;27283;52.504;13.358;2023-04-06T14:54:11;5.53;;;3.00;;
41568;SDS011;27283;52.504;13.358;2023-04-06T14:56:43;5.57;;;3.00;;
41568;SDS011;27283;52.504;13.358;2023-04-06T14:59:16;7.13;;;3.10;;
41568;SDS011;27283;52.504;13.358;2023-04-06T15:01:48;6.95;;;3.15;;
41568;SDS011;27283;52.504;13.358;2023-04-06T15:04:21;4.75;;;2.97;;
41568;SDS011;27283;52.504;13.358;2023-04-06T15:06:55;6.70;;;2.80;;
41568;SDS011;27283;52.504;13.358;2023-04-06T15:09:28;7.68;;;3.15;;
41568;SDS011;27283;52.504;13.358;2023-04-06T15:12:00;6.30;;;3.20;;
41568;SDS011;27283;52.504;13.358;2023-04-06T15:14:34;4.53;;;2.65;;
41568;SDS011;27283;52.504;13.358;2023-04-06T15:17:06;6.15;;;3.08;;
41568;SDS011;27283;52.504;13.358;2023-04-06T15:19:38;6.28;;;2.90;;
41568;SDS011;27283;52.504;13.358;2023-04-06T15:22:13;7.60;;;2.80;;
41568;SDS011;27283;52.504;13.358;2023-04-06T15:24:46;4.50;;;2.90;;
41568;SDS011;27283;52.504;13.358;2023-04-06T15:27:18;5.70;;;3.00;;
41568;SDS011;27283;52.504;13.358;2023-04-06T15:29:51;7.13;;;2.97;;
41568;SDS011;27283;52.504;13.358;2023-04-06T15:32:22;4.43;;;2.47;;
41568;SDS011;27283;52.504;13.358;2023-04-06T15:34:55;5.82;;;2.88;;
41568;SDS011;27283;52.504;13.358;2023-04-06T15:37:31;5.63;;;2.80;;
41568;SDS011;27283;52.504;13.358;2023-04-06T15:40:06;6.03;;;2.78;;
41568;SDS011;27283;52.504;13.358;2023-04-06T15:42:41;4.18;;;2.75;;
41568;SDS011;27283;52.504;13.358;2023-04-06T15:45:14;4.63;;;2.78;;
41568;SDS011;27283;52.504;13.358;2023-04-06T15:47:46;4.97;;;2.75;;
41568;SDS011;27283;52.504;13.358;2023-04-06T15:50:19;4.10;;;2.70;;
41568;SDS011;27283;52.504;13.358;2023-04-06T15:52:54;4.85;;;3.08;;
41568;SDS011;27283;52.504;13.358;2023-04-06T15:55:26;4.72;;;3.13;;
41568;SDS011;27283;52.504;13.358;2023-04-06T15:57:58;6.80;;;3.35;;
41568;SDS011;27283;52.504;13.358;2023-04-06T16:00:31;5.85;;;3.10;;
41568;SDS011;27283;52.504;13.358;2023-04-06T16:03:03;6.20;;;3.20;;
41568;SDS011;27283;52.504;13.358;2023-04-06T16:05:36;7.13;;;3.00;;
41568;SDS011;27283;52.504;13.358;2023-04-06T16:08:29;5.60;;;3.17;;
41568;SDS011;27283;52.504;13.358;2023-04-06T16:11:01;6.03;;;3.38;;
41568;SDS011;27283;52.504;13.358;2023-04-06T16:13:34;6.25;;;3.35;;
41568;SDS011;27283;52.504;13.358;2023-04-06T16:16:08;6.35;;;3.58;;
41568;SDS011;27283;52.504;13.358;2023-04-06T16:18:41;6.25;;;3.15;;
41568;SDS011;27283;52.504;13.358;2023-04-06T16:21:14;6.03;;;3.53;;
41568;SDS011;27283;52.504;13.358;2023-04-06T16:23:50;6.72;;;3.38;;
41568;SDS011;27283;52.504;13.358;2023-04-06T16:26:24;5.28;;;3.10;;
41568;SDS011;27283;52.504;13.358;2023-04-06T16:28:56;7.65;;;3.10;;
41568;SDS011;27283;52.504;13.358;2023-04-06T16:31:29;5.18;;;3.42;;
41568;SDS011;27283;52.504;13.358;2023-04-06T16:34:01;7.15;;;3.45;;